EGFFLEAL

Guest
Details From EGFF - Cardiff
To LEAL - Alicante
Flight Number -
Tags Generated
Created
Modified
Stats Distance 797 nm / 1,476 km
Max Altitude 0 ft / 0 m
Waypoints 5
Social Downloads 5
Likes 0
Share VATSIM

Download

Looking for another format? Having issues loading an existing format? Contact us
Advertisement - Login to hide

Notes

Generated

Route

EGFF ERIGA NO R2305 LEAL

ID Type Via Altitude Latitude Longitude Leg Dist Tot Dist Heading (true) Name
O EGFF APT - 0 ft / 0 m 51.40151˚ -3.35867˚ - 0 nm - -
ERIGA FIX - 0 ft / 0 m 46.86000˚ -2.36306˚ 275 nm 275 nm 171° / 172° -
NO NDB - 0 ft / 0 m 42.74999˚ -1.63167˚ 248 nm 524 nm 173° / 173° PAMPLONA NDB
R2305 FIX - 0 ft / 0 m 38.28452˚ -0.57500˚ 272 nm 796 nm 169° / 170° -
O LEAL APT - 0 ft / 0 m 38.28452˚ -0.57500˚ 0 nm 796 nm 270° / 270° -

Altitude Profile

Advertisement - Login to hide

Weather


0- 5 10 15 20 25 30 35+ Temperature / ° C

Clouds and Precipitation
Forecast for 2018-05-27 18:00 UTC. Updated 3 hours ago

Ground ~20,000 ft ~40,000 ft Winds

EGFF

Details ICAO EGFF (CWL)
Name Cardiff
Region United Kingdom
Timezone Europe/London (UTC+1.0)
Stats Elevation 220 ft / 67 m (AMSL)
Location 51.396565° -3.343202°
Runways 1
Magnetic Variation 1.510° W

METAR

EGFF 271920Z AUTO 14002KT 9999 NCD 20/15 Q1015

Decode

TAF

TAF EGFF 271658Z 2718/2818 VRB05KT 9999 SCT045 PROB40 TEMPO 2718/2721 3000 +SHRA TSGR BKN007 BKN045CB BECMG 2803/2806 9000 PROB40 2805/2809 BKN007 BECMG 2807/2810 9999 PROB40 TEMPO 2814/2818 3000 +SHRA TSRA BKN014CB

Decode

Departure Runways

ID Width Length Bearing (true) Bearing (mag) Surface Threshold Offset Overrun Length
12 131 ft / 40 m 7,831 ft / 2,387 m 116.82° 118.33° Asphalt 715 ft / 218 m 0 ft / 0 m
30 131 ft / 40 m 7,831 ft / 2,387 m 296.84° 298.35° Asphalt 594 ft / 181 m 0 ft / 0 m

LEAL

Details ICAO LEAL (ALC)
Name Alicante
Region Spain
Timezone Europe/Madrid (UTC+2.0)
Stats Elevation 141 ft / 43 m (AMSL)
Location 38.282169° -0.558157°
Runways 1
Magnetic Variation 0.233° E

METAR

LEAL 271930Z 10004KT 080V150 9999 FEW045 21/18 Q1013 NOSIG

Decode

TAF

TAF LEAL 271700Z 2718/2818 18008KT 9999 FEW030 TX25/2812Z TN17/2806Z BECMG 2718/2720 29007KT BECMG 2808/2811 09015KT

Decode

Destination Runways

ID Width Length Bearing (true) Bearing (mag) Surface Threshold Offset Overrun Length
10 148 ft / 45 m 9,799 ft / 2,987 m 100.07° 99.84° Asphalt 0 ft / 0 m 164 ft / 50 m
28 148 ft / 45 m 9,799 ft / 2,987 m 280.09° 279.86° Asphalt 0 ft / 0 m 197 ft / 60 m

Approach Navaids

Runway Type Ident Frequency Range Bearing (true) Bearing (mag) Slope Elevation
10 Localiser IAT 110.30 MHz 18 nm / 33 km 100.09° 99.86° - 29 ft / 9 m (AMSL)
10 Glidescope IAT 110.30 MHz 10 nm / 19 km 100.09° 99.86° 3.00° 129 ft / 39 m (AMSL)
10 DME IAT 110.30 MHz 18 nm / 33 km - - - 129 ft / 39 m (AMSL)

Popular Alternatives